createdAt,value
2019-04-16T00:02:04.754Z,51.49
2019-04-16T00:04:53.644Z,50.86
2019-04-16T00:07:34.332Z,51.11
2019-04-16T00:10:22.004Z,51.22
2019-04-16T00:13:09.679Z,51.39
2019-04-16T00:15:41.004Z,51.34
2019-04-16T00:18:08.685Z,51.52
2019-04-16T00:20:43.003Z,51.52
2019-04-16T00:23:18.420Z,51.48
2019-04-16T00:25:46.525Z,51.48
2019-04-16T00:28:14.673Z,51.90
2019-04-16T00:30:42.974Z,52.01
2019-04-16T00:33:11.590Z,52.34
2019-04-16T00:35:39.532Z,52.07
2019-04-16T00:38:07.735Z,52.12
2019-04-16T00:40:35.841Z,52.16
2019-04-16T00:43:04.567Z,52.39
2019-04-16T00:45:32.689Z,52.65
2019-04-16T00:48:00.744Z,53.14
2019-04-16T00:50:31.192Z,53.17
2019-04-16T00:52:59.253Z,53.07
2019-04-16T00:55:27.340Z,53.20
2019-04-16T00:57:55.531Z,53.28
2019-04-16T01:00:23.663Z,53.32
2019-04-16T01:02:51.657Z,53.39
2019-04-16T01:05:19.907Z,53.52
2019-04-16T01:07:48.184Z,53.32
2019-04-16T01:10:16.626Z,53.42
2019-04-16T01:12:44.851Z,53.41
2019-04-16T01:15:13.003Z,53.59
2019-04-16T01:17:40.854Z,53.45
2019-04-16T01:20:11.930Z,53.71
2019-04-16T01:22:38.921Z,53.67
2019-04-16T01:25:07.300Z,53.86
2019-04-16T01:27:42.180Z,53.90
2019-04-16T01:30:13.026Z,53.90
2019-04-16T01:32:49.474Z,54.06
2019-04-16T01:35:35.656Z,54.03
2019-04-16T01:38:27.670Z,54.11
2019-04-16T01:40:59.003Z,54.28
2019-04-16T01:43:27.047Z,54.43
2019-04-16T01:45:55.149Z,54.35
2019-04-16T01:48:23.104Z,54.27
2019-04-16T01:50:51.205Z,54.44
2019-04-16T01:53:24.201Z,54.83
2019-04-16T01:55:56.702Z,54.41
2019-04-16T01:58:22.359Z,54.67
2019-04-16T02:00:50.491Z,54.49
2019-04-16T02:03:18.594Z,54.20
2019-04-16T02:05:46.696Z,54.32
2019-04-16T02:08:14.782Z,54.17
2019-04-16T02:10:42.889Z,54.33
2019-04-16T02:13:14.523Z,54.48
2019-04-16T02:15:41.545Z,54.84
2019-04-16T02:18:09.640Z,54.49
2019-04-16T02:20:39.493Z,54.54
2019-04-16T02:23:07.703Z,54.89
2019-04-16T02:25:35.902Z,55.25
2019-04-16T02:28:04.619Z,55.12
2019-04-16T02:30:37.221Z,55.07
2019-04-16T02:33:02.700Z,55.10
2019-04-16T02:35:30.836Z,54.93
2019-04-16T02:37:59.103Z,55.11
2019-04-16T02:40:27.092Z,55.11
2019-04-16T02:42:55.244Z,55.31
2019-04-16T02:45:24.406Z,55.47
2019-04-16T02:47:52.763Z,55.50
2019-04-16T02:50:30.245Z,55.64
2019-04-16T02:53:11.980Z,55.59
2019-04-16T02:56:17.370Z,56.13
2019-04-16T02:58:46.894Z,55.93
2019-04-16T03:01:32.853Z,56.19
2019-04-16T03:04:08.426Z,56.05
2019-04-16T03:06:36.518Z,56.18
2019-04-16T03:09:09.135Z,56.84
2019-04-16T03:11:35.993Z,56.44
2019-04-16T03:14:04.117Z,56.28
2019-04-16T03:16:50.304Z,56.32
2019-04-16T03:19:23.883Z,56.21
2019-04-16T03:21:51.962Z,56.51
2019-04-16T03:24:19.999Z,56.33
2019-04-16T03:26:51.278Z,56.65
2019-04-16T03:29:19.695Z,56.75
2019-04-16T03:31:47.813Z,56.76
2019-04-16T03:34:19.278Z,56.62
2019-04-16T03:36:45.870Z,57.08
2019-04-16T03:39:14.307Z,56.94
2019-04-16T03:41:43.455Z,57.04
2019-04-16T03:44:11.437Z,57.34
2019-04-16T03:46:40.218Z,57.53
2019-04-16T03:49:08.474Z,57.55
2019-04-16T03:51:36.590Z,57.29
2019-04-16T03:54:05.925Z,58.05
2019-04-16T03:56:34.061Z,57.45
2019-04-16T03:59:02.085Z,57.49
2019-04-16T04:01:29.933Z,57.23
2019-04-16T04:03:58.584Z,57.39
2019-04-16T04:06:26.744Z,57.22
2019-04-16T04:08:54.857Z,57.32
2019-04-16T04:11:22.876Z,57.46
2019-04-16T04:13:51.023Z,57.69
2019-04-16T04:16:19.181Z,57.74
2019-04-16T04:18:47.287Z,57.73
2019-04-16T04:21:15.507Z,57.52
2019-04-16T04:23:43.587Z,57.75
2019-04-16T04:26:11.709Z,58.12
2019-04-16T04:28:39.601Z,58.10
2019-04-16T04:31:07.630Z,58.17
2019-04-16T04:33:40.443Z,58.08
2019-04-16T04:36:07.676Z,58.46
2019-04-16T04:38:37.448Z,58.73
2019-04-16T04:41:06.476Z,58.73
2019-04-16T04:43:34.608Z,58.98
2019-04-16T04:46:02.776Z,59.49
2019-04-16T04:48:31.725Z,58.69
2019-04-16T04:50:59.761Z,58.12
2019-04-16T04:53:27.764Z,59.11
2019-04-16T04:55:57.222Z,59.24
2019-04-16T04:58:25.551Z,58.91
2019-04-16T05:00:53.592Z,58.98
2019-04-16T05:03:47.567Z,59.56
2019-04-16T05:06:19.210Z,59.30
2019-04-16T05:08:47.175Z,59.04
2019-04-16T05:11:16.947Z,60.23
2019-04-16T05:13:45.120Z,60.78
2019-04-16T05:16:15.117Z,60.09
2019-04-16T05:18:43.034Z,60.39
2019-04-16T05:21:11.125Z,60.99
2019-04-16T05:23:40.820Z,61.61
2019-04-16T05:26:09.953Z,60.71
2019-04-16T05:28:38.425Z,62.94
2019-04-16T05:31:08.254Z,61.57
2019-04-16T05:33:37.344Z,60.74
2019-04-16T05:36:06.334Z,61.41
2019-04-16T05:38:34.247Z,60.84
2019-04-16T05:41:12.669Z,61.00
2019-04-16T05:43:32.001Z,61.32
2019-04-16T05:46:00.107Z,60.38
2019-04-16T05:48:28.574Z,59.73
2019-04-16T05:50:59.697Z,60.44
2019-04-16T05:53:26.396Z,59.82
2019-04-16T05:56:09.530Z,59.63
2019-04-16T05:58:37.341Z,58.90
2019-04-16T06:01:24.888Z,58.74
2019-04-16T06:03:53.322Z,58.22
2019-04-16T06:06:22.209Z,57.30
2019-04-16T06:08:50.096Z,56.96
2019-04-16T06:11:28.624Z,57.54
2019-04-16T06:13:59.847Z,56.86
2019-04-16T06:16:56.753Z,55.85
2019-04-16T06:19:52.644Z,57.36
2019-04-16T06:22:30.236Z,55.98
2019-04-16T06:25:23.977Z,55.88
2019-04-16T06:28:12.102Z,54.99
2019-04-16T06:31:10.171Z,54.77
2019-04-16T06:33:57.639Z,54.39
2019-04-16T06:36:50.967Z,53.26
2019-04-16T06:39:36.778Z,53.94
2019-04-16T06:42:27.147Z,52.61
2019-04-16T06:45:01.561Z,51.97
2019-04-16T06:47:58.337Z,51.51
2019-04-16T06:50:46.535Z,51.18
2019-04-16T06:53:49.068Z,50.87
2019-04-16T06:56:32.494Z,51.02
2019-04-16T06:59:11.967Z,50.60
2019-04-16T07:02:18.660Z,50.58
2019-04-16T07:05:06.029Z,49.10
2019-04-16T07:08:02.232Z,49.35
2019-04-16T07:10:43.985Z,49.16
2019-04-16T07:13:03.869Z,48.78
2019-04-16T07:15:32.453Z,47.77
2019-04-16T07:18:02.522Z,47.16
2019-04-16T07:20:30.300Z,46.97
2019-04-16T07:22:58.324Z,46.86
2019-04-16T07:25:27.962Z,46.19
2019-04-16T07:28:06.300Z,45.28
2019-04-16T07:30:40.605Z,44.75
2019-04-16T07:33:27.020Z,44.06
2019-04-16T07:36:04.903Z,43.76
2019-04-16T07:38:42.271Z,43.40
2019-04-16T07:41:26.549Z,42.71
2019-04-16T07:44:11.229Z,41.89
2019-04-16T07:46:59.088Z,42.55
2019-04-16T07:49:37.696Z,40.69
2019-04-16T07:52:31.260Z,40.93
2019-04-16T07:55:26.570Z,40.63
2019-04-16T07:57:54.477Z,39.66
2019-04-16T08:00:22.631Z,39.22
2019-04-16T08:02:53.559Z,39.22
2019-04-16T08:05:20.572Z,38.22
2019-04-16T08:07:49.812Z,38.28
2019-04-16T08:10:19.029Z,37.04
2019-04-16T08:13:04.630Z,37.71
2019-04-16T08:15:32.709Z,37.01
2019-04-16T08:18:00.712Z,35.91
2019-04-16T08:20:28.757Z,35.48
2019-04-16T08:23:00.124Z,34.96
2019-04-16T08:25:33.654Z,35.35
2019-04-16T08:27:59.539Z,34.89
2019-04-16T08:30:27.582Z,34.26
2019-04-16T08:32:56.412Z,34.35
2019-04-16T08:35:24.507Z,33.63
2019-04-16T08:37:52.376Z,34.04
2019-04-16T08:40:20.352Z,33.78
2019-04-16T08:42:48.514Z,34.55
2019-04-16T08:45:16.668Z,32.98
2019-04-16T08:47:45.995Z,33.27
2019-04-16T08:50:14.302Z,32.73
2019-04-16T08:52:42.614Z,32.27
2019-04-16T08:55:10.863Z,32.35
2019-04-16T08:57:39.803Z,32.34
2019-04-16T09:00:14.146Z,32.44
2019-04-16T09:02:40.908Z,31.99
2019-04-16T09:05:11.409Z,30.97
2019-04-16T09:07:39.642Z,30.50
2019-04-16T09:10:18.134Z,30.52
2019-04-16T09:12:45.562Z,30.72
2019-04-16T09:15:16.961Z,29.96
2019-04-16T09:17:47.586Z,29.97
2019-04-16T09:20:17.771Z,30.01
2019-04-16T09:22:49.435Z,29.44
2019-04-16T09:25:35.317Z,30.11
2019-04-16T09:28:35.563Z,29.99
2019-04-16T09:31:22.036Z,29.91
2019-04-16T09:34:09.609Z,29.98
2019-04-16T09:36:59.546Z,30.34
2019-04-16T09:39:45.312Z,29.40
2019-04-16T09:42:13.264Z,28.55
2019-04-16T09:44:41.314Z,28.52
2019-04-16T09:47:09.506Z,29.15
2019-04-16T09:49:38.403Z,29.46
2019-04-16T09:52:06.477Z,28.03
2019-04-16T09:54:34.504Z,27.77
2019-04-16T09:57:03.128Z,28.30
2019-04-16T09:59:39.700Z,28.23
2019-04-16T10:02:14.242Z,28.53
2019-04-16T10:04:42.138Z,28.84
2019-04-16T10:07:10.176Z,28.00
2019-04-16T10:09:38.815Z,27.76
2019-04-16T10:12:07.972Z,28.76
2019-04-16T10:14:36.961Z,28.64
2019-04-16T10:17:06.949Z,28.00
2019-04-16T10:19:35.011Z,26.70
2019-04-16T10:22:03.149Z,26.70
2019-04-16T10:24:50.574Z,27.65
2019-04-16T10:27:33.847Z,27.65
2019-04-16T10:30:02.080Z,26.56
2019-04-16T10:32:30.270Z,26.76
2019-04-16T10:34:58.306Z,26.97
2019-04-16T10:37:26.274Z,26.28
2019-04-16T10:40:13.931Z,26.28
2019-04-16T10:43:07.363Z,26.59
2019-04-16T10:45:52.869Z,26.08
2019-04-16T10:48:39.401Z,27.22
2019-04-16T10:51:29.565Z,27.22
2019-04-16T10:54:15.136Z,26.58
2019-04-16T10:57:01.749Z,26.39
2019-04-16T10:59:58.493Z,26.12
2019-04-16T11:03:04.585Z,26.12
2019-04-16T11:05:46.227Z,26.04
2019-04-16T11:08:14.800Z,26.04
2019-04-16T11:10:42.796Z,24.75
2019-04-16T11:13:16.184Z,25.26
2019-04-16T11:15:44.304Z,25.03
2019-04-16T11:18:12.184Z,25.03
2019-04-16T11:20:40.270Z,25.07
2019-04-16T11:23:08.282Z,25.03
2019-04-16T11:25:36.391Z,25.15
2019-04-16T11:28:04.383Z,25.28
2019-04-16T11:30:41.773Z,24.35
2019-04-16T11:33:09.853Z,24.82
2019-04-16T11:35:38.054Z,24.17
2019-04-16T11:38:06.039Z,25.00
2019-04-16T11:40:34.501Z,23.66
2019-04-16T11:43:03.230Z,25.04
2019-04-16T11:45:31.657Z,25.77
2019-04-16T11:47:59.660Z,27.19
2019-04-16T11:50:28.391Z,25.01
2019-04-16T11:52:58.157Z,24.46
2019-04-16T11:55:26.563Z,23.82
2019-04-16T11:57:54.774Z,24.33
2019-04-16T12:00:33.113Z,24.41
2019-04-16T12:03:23.755Z,23.58
2019-04-16T12:06:10.458Z,23.92
2019-04-16T12:08:56.879Z,23.96
2019-04-16T12:11:40.409Z,23.84
2019-04-16T12:14:31.002Z,23.84
2019-04-16T12:17:15.844Z,22.93
2019-04-16T12:20:05.135Z,22.81
2019-04-16T12:22:55.179Z,22.24
2019-04-16T12:25:43.375Z,22.24
2019-04-16T12:28:29.306Z,22.57
2019-04-16T12:31:17.224Z,22.27
2019-04-16T12:34:03.777Z,21.81
2019-04-16T12:36:54.234Z,21.81
2019-04-16T12:39:48.451Z,22.97
2019-04-16T12:42:24.625Z,22.28
2019-04-16T12:44:56.293Z,21.39
2019-04-16T12:47:42.177Z,21.48
2019-04-16T12:50:19.968Z,21.68
2019-04-16T12:53:06.088Z,21.91
2019-04-16T12:55:52.276Z,22.10
2019-04-16T12:58:50.423Z,20.71
2019-04-16T13:01:44.082Z,21.77
2019-04-16T13:04:22.415Z,21.98
2019-04-16T13:07:05.362Z,21.72
2019-04-16T13:10:02.392Z,21.18
2019-04-16T13:12:48.287Z,21.11
2019-04-16T13:15:40.441Z,21.65
2019-04-16T13:18:17.776Z,21.53
2019-04-16T13:21:07.669Z,21.22
2019-04-16T13:23:57.739Z,20.63
2019-04-16T13:26:45.307Z,20.46
2019-04-16T13:29:17.202Z,19.95
2019-04-16T13:31:45.609Z,20.15
2019-04-16T13:34:18.375Z,20.71
2019-04-16T13:36:43.570Z,20.53
2019-04-16T13:39:25.316Z,20.28
2019-04-16T13:41:53.403Z,19.82
2019-04-16T13:44:23.253Z,20.15
2019-04-16T13:46:51.117Z,20.36
2019-04-16T13:49:24.841Z,19.92
2019-04-16T13:51:52.850Z,19.82
2019-04-16T13:54:40.108Z,20.10
2019-04-16T13:57:12.070Z,20.30
2019-04-16T14:00:04.426Z,19.87
2019-04-16T14:02:43.718Z,20.17
2019-04-16T14:05:12.343Z,20.05
2019-04-16T14:07:40.412Z,19.11
2019-04-16T14:10:08.545Z,19.24
2019-04-16T14:12:42.198Z,20.00
2019-04-16T14:15:07.950Z,19.44
2019-04-16T14:17:51.334Z,19.73
2019-04-16T14:20:08.556Z,19.28
2019-04-16T14:22:37.689Z,19.79
2019-04-16T14:25:06.775Z,19.72
2019-04-16T14:27:34.672Z,20.10
2019-04-16T14:30:09.984Z,19.70
2019-04-16T14:32:55.478Z,19.29
2019-04-16T14:35:33.557Z,20.15
2019-04-16T14:37:55.911Z,20.27
2019-04-16T14:40:24.795Z,20.28
2019-04-16T14:42:56.636Z,19.94
2019-04-16T14:45:56.737Z,19.55
2019-04-16T14:48:12.744Z,20.18
2019-04-16T14:50:40.822Z,19.69
2019-04-16T14:53:08.909Z,18.75
2019-04-16T14:55:59.647Z,19.10
2019-04-16T14:58:40.556Z,20.21
2019-04-16T15:01:27.933Z,19.86
2019-04-16T15:04:33.663Z,19.79
2019-04-16T15:07:23.651Z,19.79
2019-04-16T15:10:14.012Z,20.08
2019-04-16T15:12:49.658Z,20.31
2019-04-16T15:15:27.643Z,20.14
2019-04-16T15:18:15.080Z,19.87
2019-04-16T15:21:03.391Z,19.55
2019-04-16T15:24:01.603Z,19.95
2019-04-16T15:26:52.648Z,20.15
2019-04-16T15:29:27.717Z,19.65
2019-04-16T15:32:05.921Z,19.82
2019-04-16T15:34:42.789Z,19.50
2019-04-16T15:37:44.927Z,19.40
2019-04-16T15:40:20.088Z,20.29
2019-04-16T15:43:19.290Z,19.73
2019-04-16T15:46:26.202Z,20.19
2019-04-16T15:49:10.535Z,19.52
2019-04-16T15:51:44.499Z,20.20
2019-04-16T15:54:31.184Z,20.03
2019-04-16T15:57:19.135Z,20.38
2019-04-16T15:59:55.956Z,20.60
2019-04-16T16:02:41.369Z,20.68
2019-04-16T16:05:20.050Z,20.66
2019-04-16T16:07:56.546Z,20.59
2019-04-16T16:10:28.383Z,20.62
2019-04-16T16:12:56.467Z,20.68
2019-04-16T16:15:24.622Z,20.75
2019-04-16T16:17:52.447Z,20.99
2019-04-16T16:20:21.069Z,21.21
2019-04-16T16:22:49.006Z,21.31
2019-04-16T16:25:17.006Z,21.59
2019-04-16T16:27:47.160Z,21.61
2019-04-16T16:30:15.688Z,21.77
2019-04-16T16:32:43.834Z,21.28
2019-04-16T16:35:17.035Z,24.73
2019-04-16T16:37:41.778Z,29.09
2019-04-16T16:40:12.047Z,22.67
2019-04-16T16:42:39.775Z,22.97
2019-04-16T16:45:08.083Z,23.31
2019-04-16T16:47:39.932Z,23.35
2019-04-16T16:50:11.526Z,23.39
2019-04-16T16:53:05.858Z,23.33
2019-04-16T16:55:37.189Z,22.91
2019-04-16T16:58:39.623Z,22.82
2019-04-16T17:01:26.598Z,23.74
2019-04-16T17:04:07.096Z,23.84
2019-04-16T17:06:35.511Z,22.93
2019-04-16T17:09:06.018Z,24.06
2019-04-16T17:11:33.912Z,24.50
2019-04-16T17:14:03.139Z,24.79
2019-04-16T17:16:31.526Z,24.97
2019-04-16T17:18:59.327Z,24.57
2019-04-16T17:21:27.310Z,24.23
2019-04-16T17:23:55.633Z,23.98
2019-04-16T17:26:33.553Z,24.55
2019-04-16T17:29:01.450Z,24.35
2019-04-16T17:31:29.414Z,24.46
2019-04-16T17:33:57.402Z,24.63
2019-04-16T17:36:25.342Z,24.85
2019-04-16T17:38:54.430Z,24.81
2019-04-16T17:41:25.971Z,25.02
2019-04-16T17:44:31.154Z,24.96
2019-04-16T17:47:08.202Z,25.13
2019-04-16T17:49:50.539Z,25.20
2019-04-16T17:52:31.371Z,25.12
2019-04-16T17:55:05.231Z,25.20
2019-04-16T17:57:49.108Z,25.12
2019-04-16T18:00:40.951Z,25.38
2019-04-16T18:03:38.624Z,25.67
2019-04-16T18:06:31.889Z,25.59
2019-04-16T18:09:22.146Z,25.57
2019-04-16T18:12:27.627Z,25.92
2019-04-16T18:15:07.178Z,26.18
2019-04-16T18:18:05.524Z,26.59
2019-04-16T18:20:39.495Z,26.84
2019-04-16T18:23:32.902Z,27.11
2019-04-16T18:26:18.681Z,33.34
2019-04-16T18:29:00.821Z,32.58
2019-04-16T18:31:41.711Z,35.24
2019-04-16T18:34:47.086Z,32.90
2019-04-16T18:37:34.457Z,32.62
2019-04-16T18:40:27.948Z,31.31
2019-04-16T18:43:14.042Z,31.97
2019-04-16T18:46:10.967Z,29.48
2019-04-16T18:48:44.609Z,30.80
2019-04-16T18:51:10.889Z,29.47
2019-04-16T18:53:40.310Z,29.26
2019-04-16T18:56:08.585Z,29.25
2019-04-16T18:58:36.586Z,29.58
2019-04-16T19:01:13.477Z,29.64
2019-04-16T19:03:41.350Z,29.99
2019-04-16T19:06:09.656Z,30.13
2019-04-16T19:08:41.950Z,30.41
2019-04-16T19:11:07.682Z,30.41
2019-04-16T19:13:35.735Z,30.45
2019-04-16T19:16:03.921Z,30.73
2019-04-16T19:18:31.767Z,30.88
2019-04-16T19:20:59.865Z,30.89
2019-04-16T19:23:27.799Z,30.92
2019-04-16T19:25:56.755Z,31.14
2019-04-16T19:28:24.900Z,31.14
2019-04-16T19:30:59.969Z,31.17
2019-04-16T19:33:33.419Z,31.17
2019-04-16T19:35:58.075Z,31.35
2019-04-16T19:38:26.441Z,31.47
2019-04-16T19:40:54.739Z,31.41
2019-04-16T19:43:22.837Z,33.92
2019-04-16T19:45:50.863Z,35.48
2019-04-16T19:48:34.238Z,34.42
2019-04-16T19:50:48.822Z,32.60
2019-04-16T19:53:17.337Z,32.12
2019-04-16T19:55:46.620Z,32.16
2019-04-16T19:58:15.069Z,32.37
2019-04-16T20:00:43.116Z,32.37
2019-04-16T20:03:11.175Z,32.38
2019-04-16T20:05:39.011Z,32.58
2019-04-16T20:08:07.029Z,32.70
2019-04-16T20:10:34.909Z,32.70
2019-04-16T20:13:03.121Z,32.57
2019-04-16T20:15:31.072Z,32.68
2019-04-16T20:17:59.341Z,33.01
2019-04-16T20:20:27.435Z,32.86
2019-04-16T20:22:55.376Z,32.81
2019-04-16T20:25:23.589Z,32.81
2019-04-16T20:27:52.157Z,33.28
2019-04-16T20:30:22.971Z,33.28
2019-04-16T20:33:05.911Z,33.39
2019-04-16T20:35:33.929Z,33.39
2019-04-16T20:38:02.213Z,33.85
2019-04-16T20:40:30.251Z,33.85
2019-04-16T20:42:58.274Z,33.80
2019-04-16T20:45:26.549Z,33.84
2019-04-16T20:47:54.564Z,33.84
2019-04-16T20:50:22.835Z,34.03
2019-04-16T20:52:50.886Z,34.48
2019-04-16T20:55:18.785Z,38.93
2019-04-16T20:57:47.576Z,38.93
2019-04-16T21:00:20.972Z,36.81
2019-04-16T21:02:51.119Z,34.95
2019-04-16T21:05:22.298Z,34.58
2019-04-16T21:07:48.688Z,34.43
2019-04-16T21:10:16.709Z,34.37
2019-04-16T21:12:45.323Z,34.38
2019-04-16T21:15:14.148Z,34.91
2019-04-16T21:17:42.138Z,35.09
2019-04-16T21:20:10.308Z,35.39
2019-04-16T21:22:39.757Z,35.63
2019-04-16T21:25:12.999Z,35.47
2019-04-16T21:27:47.671Z,35.41
2019-04-16T21:30:16.280Z,35.46
2019-04-16T21:33:06.480Z,35.68
2019-04-16T21:35:38.537Z,35.56
2019-04-16T21:38:15.004Z,35.70
2019-04-16T21:40:42.870Z,35.87
2019-04-16T21:43:10.985Z,35.64
2019-04-16T21:45:39.050Z,35.78
2019-04-16T21:48:07.138Z,35.54
2019-04-16T21:50:35.027Z,35.83
2019-04-16T21:53:02.955Z,35.88
2019-04-16T21:55:32.895Z,35.93
2019-04-16T21:58:01.083Z,35.96
2019-04-16T22:00:47.494Z,36.37
2019-04-16T22:03:16.746Z,36.23
2019-04-16T22:05:51.899Z,36.06
2019-04-16T22:08:19.747Z,36.29
2019-04-16T22:10:47.624Z,36.56
2019-04-16T22:13:19.094Z,36.69
2019-04-16T22:15:46.140Z,36.86
2019-04-16T22:18:14.189Z,37.10
2019-04-16T22:20:42.167Z,37.13
2019-04-16T22:23:10.013Z,37.19
2019-04-16T22:25:38.228Z,37.30
2019-04-16T22:28:11.688Z,37.39
2019-04-16T22:30:38.276Z,37.46
2019-04-16T22:33:07.477Z,37.77
2019-04-16T22:35:36.867Z,38.03
2019-04-16T22:38:05.099Z,38.16
2019-04-16T22:41:07.701Z,38.37
2019-04-16T22:43:55.124Z,38.45
2019-04-16T22:46:51.198Z,38.44
2019-04-16T22:49:22.441Z,38.86
2019-04-16T22:51:49.319Z,38.92
2019-04-16T22:54:17.724Z,39.24
2019-04-16T22:57:06.979Z,39.48
2019-04-16T22:59:39.071Z,39.90
2019-04-16T23:02:18.155Z,39.94
2019-04-16T23:04:46.171Z,40.02
2019-04-16T23:07:14.346Z,40.30
2019-04-16T23:09:42.578Z,40.41
2019-04-16T23:12:10.517Z,40.52
2019-04-16T23:14:38.547Z,40.56
2019-04-16T23:17:06.669Z,40.83
2019-04-16T23:19:34.625Z,40.97
2019-04-16T23:22:02.730Z,41.52
2019-04-16T23:24:30.580Z,41.56
2019-04-16T23:27:04.148Z,41.74
2019-04-16T23:29:28.519Z,41.77
2019-04-16T23:31:56.397Z,42.11
2019-04-16T23:34:24.380Z,42.26
2019-04-16T23:36:52.527Z,42.53
2019-04-16T23:39:23.447Z,42.84
2019-04-16T23:41:51.640Z,42.95
2019-04-16T23:44:45.743Z,42.88
2019-04-16T23:47:42.388Z,43.45
2019-04-16T23:50:43.779Z,43.16
2019-04-16T23:53:07.225Z,43.65
2019-04-16T23:56:04.365Z,43.91
2019-04-16T23:58:49.644Z,44.12
